createdAt,value
2023-03-20T00:06:35.680Z,37.4
2023-03-20T00:14:07.997Z,37.3
2023-03-20T00:21:40.318Z,37.3
2023-03-20T00:29:12.624Z,37.8
2023-03-20T00:36:44.932Z,37.3
2023-03-20T00:44:17.513Z,37.3
2023-03-20T00:51:49.839Z,37.3
2023-03-20T00:59:22.188Z,37.3
2023-03-20T01:06:54.539Z,37.4
2023-03-20T01:14:26.870Z,37.4
2023-03-20T01:21:59.201Z,37.4
2023-03-20T01:29:31.521Z,37.4
2023-03-20T01:37:03.844Z,37.4
2023-03-20T01:44:36.168Z,37.4
2023-03-20T01:52:08.503Z,37.4
2023-03-20T01:59:40.846Z,37.4
2023-03-20T02:07:13.173Z,37.4
2023-03-20T02:14:45.516Z,37.4
2023-03-20T02:22:17.861Z,37.4
2023-03-20T02:29:50.199Z,37.4
2023-03-20T02:37:22.508Z,37.4
2023-03-20T02:44:54.815Z,37.4
2023-03-20T02:52:27.158Z,37.4
2023-03-20T02:59:59.496Z,37.3
2023-03-20T03:07:31.819Z,37.3
2023-03-20T03:15:04.158Z,37.3
2023-03-20T03:22:36.493Z,37.4
2023-03-20T03:30:08.787Z,37.4
2023-03-20T03:37:41.105Z,37.4
2023-03-20T03:45:13.412Z,37.4
2023-03-20T03:52:45.788Z,37.4
2023-03-20T04:00:18.112Z,37.4
2023-03-20T04:07:50.439Z,37.4
2023-03-20T04:15:22.758Z,37.3
2023-03-20T04:22:55.076Z,37.4
2023-03-20T04:30:27.442Z,37.3
2023-03-20T04:37:59.770Z,37.4
2023-03-20T04:45:32.156Z,37.4
2023-03-20T04:53:04.506Z,37.3
2023-03-20T05:00:36.844Z,37.3
2023-03-20T05:08:09.191Z,37.3
2023-03-20T05:10:41.473Z,37.4
2023-03-20T05:11:28.810Z,37.9
2023-03-20T05:12:16.126Z,37.2
2023-03-20T05:13:03.431Z,36.5
2023-03-20T05:13:50.749Z,36.0
2023-03-20T05:14:38.065Z,35.9
2023-03-20T05:15:25.376Z,35.9
2023-03-20T05:16:12.710Z,36.1
2023-03-20T05:17:00.068Z,36.3
2023-03-20T05:17:47.767Z,36.1
2023-03-20T05:18:35.877Z,36.1
2023-03-20T05:19:23.399Z,36.1
2023-03-20T05:20:10.735Z,35.9
2023-03-20T05:20:58.050Z,35.8
2023-03-20T05:21:45.371Z,35.7
2023-03-20T05:22:32.676Z,35.7
2023-03-20T05:23:19.984Z,35.9
2023-03-20T05:24:07.332Z,35.8
2023-03-20T05:24:54.642Z,35.8
2023-03-20T05:25:41.966Z,35.7
2023-03-20T05:26:29.289Z,35.7
2023-03-20T05:27:16.613Z,35.7
2023-03-20T05:28:03.941Z,35.8
2023-03-20T05:28:51.247Z,35.9
2023-03-20T05:29:38.547Z,35.8
2023-03-20T05:30:25.862Z,35.9
2023-03-20T05:31:13.194Z,35.9
2023-03-20T05:32:00.577Z,36.0
2023-03-20T05:32:47.984Z,36.0
2023-03-20T05:33:37.938Z,36.1
2023-03-20T05:34:25.549Z,36.2
2023-03-20T05:35:12.971Z,36.4
2023-03-20T05:36:00.347Z,36.5
2023-03-20T05:36:47.679Z,36.7
2023-03-20T05:37:35.126Z,36.8
2023-03-20T05:38:22.484Z,36.8
2023-03-20T05:39:09.821Z,36.8
2023-03-20T05:39:57.261Z,36.9
2023-03-20T05:40:44.531Z,36.9
2023-03-20T05:41:31.849Z,36.9
2023-03-20T05:42:19.279Z,37.0
2023-03-20T05:43:06.796Z,37.1
2023-03-20T05:43:54.125Z,37.0
2023-03-20T05:44:41.547Z,37.0
2023-03-20T05:45:28.886Z,37.1
2023-03-20T05:46:16.252Z,37.0
2023-03-20T05:47:03.721Z,37.1
2023-03-20T05:47:51.070Z,37.0
2023-03-20T05:48:38.375Z,37.0
2023-03-20T05:49:25.761Z,37.2
2023-03-20T05:50:13.083Z,37.2
2023-03-20T05:51:00.397Z,37.2
2023-03-20T05:51:47.805Z,37.8
2023-03-20T05:52:35.125Z,37.2
2023-03-20T05:53:22.429Z,37.2
2023-03-20T05:54:09.848Z,37.2
2023-03-20T05:54:57.163Z,37.7
2023-03-20T05:55:44.465Z,37.3
2023-03-20T05:56:31.903Z,37.3
2023-03-20T05:57:19.389Z,37.4
2023-03-20T05:58:06.863Z,37.4
2023-03-20T05:58:54.298Z,37.6
2023-03-20T05:59:41.622Z,37.8
2023-03-20T06:00:28.976Z,37.8
2023-03-20T06:01:16.409Z,37.7
2023-03-20T06:02:03.717Z,38.0
2023-03-20T06:02:51.128Z,38.0
2023-03-20T06:03:38.486Z,38.0
2023-03-20T06:04:25.910Z,38.0
2023-03-20T06:05:13.286Z,38.0
2023-03-20T06:06:00.780Z,38.0
2023-03-20T06:06:48.106Z,37.9
2023-03-20T06:07:35.434Z,38.2
2023-03-20T06:08:22.848Z,38.3
2023-03-20T06:09:10.157Z,38.4
2023-03-20T06:09:57.569Z,38.3
2023-03-20T06:10:44.902Z,38.4
2023-03-20T06:11:32.233Z,38.5
2023-03-20T06:12:19.600Z,38.5
2023-03-20T06:13:07.020Z,38.5
2023-03-20T06:13:54.322Z,38.5
2023-03-20T06:14:41.646Z,38.4
2023-03-20T06:15:29.075Z,38.3
2023-03-20T06:16:16.464Z,38.2
2023-03-20T06:17:03.815Z,37.9
2023-03-20T06:17:51.238Z,37.7
2023-03-20T06:18:38.616Z,37.5
2023-03-20T06:19:25.964Z,37.6
2023-03-20T06:20:13.334Z,37.7
2023-03-20T06:21:00.668Z,37.8
2023-03-20T06:21:48.010Z,37.7
2023-03-20T06:22:35.430Z,37.6
2023-03-20T06:23:22.759Z,37.6
2023-03-20T06:24:10.071Z,37.7
2023-03-20T06:24:57.483Z,37.6
2023-03-20T06:25:44.795Z,37.7
2023-03-20T06:26:32.124Z,37.7
2023-03-20T06:27:19.785Z,37.7
2023-03-20T06:28:07.668Z,37.7
2023-03-20T06:28:54.974Z,37.7
2023-03-20T06:29:42.388Z,37.6
2023-03-20T06:30:29.706Z,37.7
2023-03-20T06:31:17.107Z,37.7
2023-03-20T06:32:05.475Z,37.6
2023-03-20T06:32:52.847Z,37.6
2023-03-20T06:33:40.476Z,37.6
2023-03-20T06:34:27.803Z,37.6
2023-03-20T06:35:15.132Z,37.6
2023-03-20T06:36:02.491Z,37.5
2023-03-20T06:36:49.896Z,37.6
2023-03-20T06:37:37.277Z,37.8
2023-03-20T06:38:24.606Z,37.7
2023-03-20T06:39:11.930Z,37.7
2023-03-20T06:39:59.266Z,37.8
2023-03-20T06:40:46.594Z,37.9
2023-03-20T06:41:35.148Z,37.8
2023-03-20T06:42:22.566Z,37.7
2023-03-20T06:43:09.896Z,37.6
2023-03-20T06:43:57.229Z,37.7
2023-03-20T06:44:44.628Z,37.8
2023-03-20T06:45:31.995Z,37.9
2023-03-20T06:46:19.351Z,37.8
2023-03-20T06:47:06.710Z,37.8
2023-03-20T06:47:54.115Z,37.7
2023-03-20T06:48:41.448Z,37.8
2023-03-20T06:49:28.841Z,37.7
2023-03-20T06:50:16.200Z,37.9
2023-03-20T06:51:03.719Z,37.9
2023-03-20T06:51:51.046Z,37.8
2023-03-20T06:52:38.514Z,37.9
2023-03-20T06:53:26.268Z,38.0
2023-03-20T06:54:13.707Z,37.9
2023-03-20T06:55:01.073Z,37.9
2023-03-20T06:55:48.924Z,37.8
2023-03-20T06:56:36.355Z,37.8
2023-03-20T06:57:23.764Z,37.8
2023-03-20T06:58:11.110Z,37.8
2023-03-20T06:58:58.429Z,37.9
2023-03-20T06:59:46.129Z,37.9
2023-03-20T07:00:33.609Z,37.9
2023-03-20T07:01:20.987Z,37.9
2023-03-20T07:02:08.518Z,38.0
2023-03-20T07:02:55.870Z,37.9
2023-03-20T07:03:43.193Z,37.6
2023-03-20T07:04:30.549Z,37.7
2023-03-20T07:05:17.940Z,37.7
2023-03-20T07:06:05.325Z,37.8
2023-03-20T07:06:52.644Z,37.7
2023-03-20T07:07:39.963Z,37.4
2023-03-20T07:08:27.278Z,37.3
2023-03-20T07:09:14.624Z,37.5
2023-03-20T07:10:01.977Z,37.5
2023-03-20T07:10:49.320Z,37.5
2023-03-20T07:11:36.647Z,37.5
2023-03-20T07:12:23.962Z,37.5
2023-03-20T07:13:11.269Z,37.6
2023-03-20T07:13:58.587Z,37.6
2023-03-20T07:14:45.917Z,37.6
2023-03-20T07:15:33.394Z,37.7
2023-03-20T07:16:20.805Z,37.7
2023-03-20T07:17:08.176Z,37.7
2023-03-20T07:17:55.524Z,37.7
2023-03-20T07:18:42.877Z,37.7
2023-03-20T07:19:30.160Z,37.6
2023-03-20T07:20:17.489Z,37.7
2023-03-20T07:21:04.835Z,37.6
2023-03-20T07:21:52.180Z,37.6
2023-03-20T07:22:39.685Z,37.6
2023-03-20T07:23:27.026Z,37.5
2023-03-20T07:24:14.362Z,37.7
2023-03-20T07:25:01.683Z,37.7
2023-03-20T07:25:49.026Z,37.8
2023-03-20T07:26:36.352Z,38.1
2023-03-20T07:27:23.666Z,38.0
2023-03-20T07:28:10.993Z,37.8
2023-03-20T07:28:58.302Z,38.0
2023-03-20T07:29:45.613Z,38.0
2023-03-20T07:30:32.974Z,38.1
2023-03-20T07:31:20.349Z,37.9
2023-03-20T07:32:08.490Z,38.0
2023-03-20T07:32:56.314Z,37.9
2023-03-20T07:33:44.126Z,37.8
2023-03-20T07:34:31.623Z,37.9
2023-03-20T07:35:19.006Z,37.8
2023-03-20T07:36:06.427Z,37.8
2023-03-20T07:36:56.372Z,37.7
2023-03-20T07:37:43.729Z,37.9
2023-03-20T07:38:31.036Z,37.9
2023-03-20T07:39:18.340Z,38.1
2023-03-20T07:40:05.672Z,38.0
2023-03-20T07:40:53.014Z,37.9
2023-03-20T07:41:40.354Z,38.0
2023-03-20T07:42:27.729Z,38.1
2023-03-20T07:43:15.082Z,38.2
2023-03-20T07:44:02.392Z,38.2
2023-03-20T07:44:49.748Z,38.3
2023-03-20T07:45:37.266Z,38.4
2023-03-20T07:46:24.753Z,38.3
2023-03-20T07:47:12.095Z,38.3
2023-03-20T07:47:59.449Z,38.4
2023-03-20T07:48:46.970Z,38.4
2023-03-20T07:49:34.274Z,38.5
2023-03-20T07:50:21.613Z,38.4
2023-03-20T07:51:08.935Z,38.3
2023-03-20T07:51:56.289Z,38.4
2023-03-20T07:52:43.786Z,38.4
2023-03-20T07:53:31.135Z,38.3
2023-03-20T07:54:18.481Z,38.2
2023-03-20T07:55:05.813Z,38.2
2023-03-20T07:55:53.147Z,38.2
2023-03-20T07:56:40.477Z,38.2
2023-03-20T07:57:27.811Z,38.2
2023-03-20T07:58:15.147Z,38.1
2023-03-20T07:59:02.538Z,38.1
2023-03-20T07:59:49.858Z,38.1
2023-03-20T08:00:37.213Z,38.0
2023-03-20T08:01:24.558Z,38.0
2023-03-20T08:02:11.884Z,38.0
2023-03-20T08:02:59.328Z,38.1
2023-03-20T08:03:46.860Z,38.0
2023-03-20T08:04:34.386Z,38.0
2023-03-20T08:05:22.047Z,38.1
2023-03-20T08:06:09.446Z,38.1
2023-03-20T08:06:57.073Z,38.1
2023-03-20T08:07:44.706Z,38.1
2023-03-20T08:08:32.199Z,38.1
2023-03-20T08:09:19.718Z,38.1
2023-03-20T08:10:07.279Z,38.1
2023-03-20T08:10:54.665Z,38.1
2023-03-20T08:11:41.990Z,38.1
2023-03-20T08:12:29.849Z,38.1
2023-03-20T08:13:17.217Z,38.1
2023-03-20T08:14:04.603Z,38.1
2023-03-20T08:14:51.959Z,38.0
2023-03-20T08:15:39.684Z,38.0
2023-03-20T08:16:27.162Z,37.9
2023-03-20T08:17:17.085Z,38.0
2023-03-20T08:18:06.113Z,38.0
2023-03-20T08:18:53.503Z,38.0
2023-03-20T08:19:41.286Z,38.0
2023-03-20T08:20:29.172Z,38.2
2023-03-20T08:21:16.562Z,38.1
2023-03-20T08:22:04.008Z,38.1
2023-03-20T08:22:51.432Z,38.1
2023-03-20T08:23:38.768Z,38.1
2023-03-20T08:24:26.202Z,38.2
2023-03-20T08:25:13.509Z,38.3
2023-03-20T08:26:00.797Z,38.3
2023-03-20T08:26:48.250Z,38.3
2023-03-20T08:27:35.559Z,38.4
2023-03-20T08:28:30.868Z,38.4
2023-03-20T08:29:20.348Z,38.4
2023-03-20T08:30:07.765Z,38.3
2023-03-20T08:30:55.670Z,38.1
2023-03-20T08:31:43.018Z,37.9
2023-03-20T08:32:30.457Z,37.9
2023-03-20T08:33:17.828Z,37.9
2023-03-20T08:34:05.176Z,38.1
2023-03-20T08:34:52.572Z,38.2
2023-03-20T08:35:39.916Z,38.2
2023-03-20T08:36:27.252Z,38.3
2023-03-20T08:37:14.875Z,38.8
2023-03-20T08:38:02.196Z,38.5
2023-03-20T08:38:49.564Z,38.5
2023-03-20T08:39:36.974Z,39.1
2023-03-20T08:40:24.337Z,38.7
2023-03-20T08:41:11.691Z,38.7
2023-03-20T08:42:00.999Z,38.6
2023-03-20T08:42:48.576Z,38.5
2023-03-20T08:43:35.914Z,38.4
2023-03-20T08:44:23.232Z,38.5
2023-03-20T08:45:10.767Z,38.6
2023-03-20T08:45:58.302Z,38.6
2023-03-20T08:46:45.854Z,38.5
2023-03-20T08:47:33.168Z,38.4
2023-03-20T08:48:20.528Z,38.6
2023-03-20T08:49:07.888Z,38.6
2023-03-20T08:49:55.392Z,38.6
2023-03-20T08:50:42.726Z,38.5
2023-03-20T08:51:30.164Z,38.5
2023-03-20T08:52:17.526Z,38.6
2023-03-20T08:53:04.878Z,38.6
2023-03-20T08:53:52.213Z,38.5
2023-03-20T08:54:39.533Z,38.6
2023-03-20T08:55:26.867Z,38.5
2023-03-20T08:56:14.239Z,38.4
2023-03-20T08:57:01.706Z,38.5
2023-03-20T08:57:49.047Z,38.5
2023-03-20T08:58:36.368Z,38.7
2023-03-20T08:59:23.705Z,38.6
2023-03-20T09:00:11.039Z,38.5
2023-03-20T09:00:58.438Z,38.6
2023-03-20T09:01:50.158Z,38.5
2023-03-20T09:02:38.126Z,38.6
2023-03-20T09:03:25.571Z,38.6
2023-03-20T09:04:13.088Z,38.6
2023-03-20T09:05:00.414Z,38.6
2023-03-20T09:05:47.758Z,38.5
2023-03-20T09:06:35.074Z,38.5
2023-03-20T09:07:22.394Z,38.6
2023-03-20T09:08:09.899Z,38.4
2023-03-20T09:08:57.208Z,38.4
2023-03-20T09:09:44.509Z,38.4
2023-03-20T09:10:31.868Z,38.4
2023-03-20T09:11:19.617Z,38.5
2023-03-20T09:12:07.156Z,38.5
2023-03-20T09:12:54.508Z,38.6
2023-03-20T09:14:37.870Z,38.5
2023-03-20T09:15:25.301Z,38.5
2023-03-20T09:16:14.822Z,38.5
2023-03-20T09:17:02.325Z,38.4
2023-03-20T09:17:49.752Z,38.4
2023-03-20T09:18:37.081Z,38.4
2023-03-20T09:19:24.462Z,38.4
2023-03-20T09:20:11.812Z,38.4
2023-03-20T09:20:59.840Z,38.2
2023-03-20T09:21:47.157Z,38.1
2023-03-20T09:22:34.559Z,38.1
2023-03-20T09:23:21.944Z,38.1
2023-03-20T09:24:09.293Z,38.1
2023-03-20T09:24:56.698Z,38.2
2023-03-20T09:25:44.040Z,38.3
2023-03-20T09:26:31.433Z,38.2
2023-03-20T09:27:18.823Z,38.1
2023-03-20T09:28:06.127Z,38.0
2023-03-20T09:28:53.483Z,37.9
2023-03-20T09:29:40.870Z,38.0
2023-03-20T09:30:28.185Z,38.0
2023-03-20T09:31:15.539Z,38.0
2023-03-20T09:32:02.939Z,38.1
2023-03-20T09:32:50.362Z,38.1
2023-03-20T09:33:37.704Z,38.1
2023-03-20T09:34:25.112Z,38.3
2023-03-20T09:35:12.649Z,38.3
2023-03-20T09:36:00.065Z,38.3
2023-03-20T09:36:47.611Z,38.3
2023-03-20T09:37:34.960Z,38.3
2023-03-20T09:38:22.287Z,38.3
2023-03-20T09:39:09.716Z,38.3
2023-03-20T09:39:57.045Z,38.4
2023-03-20T09:40:44.376Z,38.4
2023-03-20T09:41:31.919Z,38.4
2023-03-20T09:42:19.211Z,38.4
2023-03-20T09:43:06.699Z,38.4
2023-03-20T09:43:54.027Z,38.3
2023-03-20T09:44:41.872Z,38.2
2023-03-20T09:45:29.261Z,38.1
2023-03-20T09:46:16.679Z,38.1
2023-03-20T09:47:18.834Z,38.1
2023-03-20T09:48:01.385Z,38.2
2023-03-20T09:48:48.933Z,38.2
2023-03-20T09:49:36.306Z,38.3
2023-03-20T09:50:23.645Z,38.5
2023-03-20T09:51:11.060Z,38.6
2023-03-20T09:51:58.398Z,38.7
2023-03-20T09:52:45.729Z,38.6
2023-03-20T09:53:33.166Z,38.6
2023-03-20T09:54:20.599Z,38.6
2023-03-20T09:55:08.134Z,38.5
2023-03-20T09:55:55.796Z,38.6
2023-03-20T09:56:43.184Z,38.5
2023-03-20T09:57:30.546Z,38.6
2023-03-20T09:58:17.977Z,38.5
2023-03-20T09:59:05.432Z,38.5
2023-03-20T09:59:52.774Z,38.5
2023-03-20T10:00:40.921Z,38.5
2023-03-20T10:01:28.363Z,38.5
2023-03-20T10:02:15.735Z,38.4
2023-03-20T10:03:03.077Z,38.3
2023-03-20T10:03:50.416Z,38.3
2023-03-20T10:04:37.787Z,38.3
2023-03-20T10:05:25.096Z,38.4
2023-03-20T10:06:12.455Z,38.5
2023-03-20T10:06:59.788Z,39.1
2023-03-20T10:07:47.337Z,38.6
2023-03-20T10:08:34.695Z,38.5
2023-03-20T10:09:22.083Z,38.5
2023-03-20T10:10:09.430Z,38.6
2023-03-20T10:10:56.758Z,38.7
2023-03-20T10:11:44.069Z,38.7
2023-03-20T10:12:31.417Z,38.8
2023-03-20T10:13:19.099Z,38.8
2023-03-20T10:14:06.394Z,38.7
2023-03-20T10:14:53.708Z,38.8
2023-03-20T10:15:41.053Z,39.0
2023-03-20T10:16:28.408Z,39.7
2023-03-20T10:17:15.770Z,39.5
2023-03-20T10:18:03.543Z,39.5
2023-03-20T10:18:53.874Z,39.7
2023-03-20T10:19:41.184Z,39.7
2023-03-20T10:20:28.524Z,40.6
2023-03-20T10:21:15.921Z,40.8
2023-03-20T10:22:03.233Z,40.2
2023-03-20T10:22:50.712Z,40.3
2023-03-20T10:23:38.075Z,40.1
2023-03-20T10:24:25.469Z,40.1
2023-03-20T10:25:12.855Z,40.2
2023-03-20T10:26:00.852Z,40.0
2023-03-20T10:26:48.697Z,39.8
2023-03-20T10:27:36.031Z,39.9
2023-03-20T10:28:23.759Z,40.1
2023-03-20T10:29:11.341Z,40.0
2023-03-20T10:29:58.684Z,40.0
2023-03-20T10:30:46.066Z,40.1
2023-03-20T10:31:33.479Z,40.0
2023-03-20T10:32:21.031Z,39.9
2023-03-20T10:33:08.393Z,39.9
2023-03-20T10:33:55.726Z,39.9
2023-03-20T10:34:43.081Z,39.7
2023-03-20T10:35:30.653Z,39.8
2023-03-20T10:36:18.183Z,39.8
2023-03-20T10:37:05.517Z,39.7
2023-03-20T10:37:52.988Z,39.9
2023-03-20T10:38:40.315Z,39.8
2023-03-20T10:39:27.898Z,39.5
2023-03-20T10:40:15.219Z,38.9
2023-03-20T10:41:02.536Z,38.2
2023-03-20T10:41:50.003Z,38.4
2023-03-20T10:42:37.364Z,38.8
2023-03-20T10:43:24.697Z,38.9
2023-03-20T10:44:12.142Z,39.0
2023-03-20T10:44:59.469Z,39.1
2023-03-20T10:45:47.778Z,39.2
2023-03-20T10:46:35.472Z,39.2
2023-03-20T10:47:22.989Z,39.3
2023-03-20T10:48:10.410Z,39.4
2023-03-20T10:48:57.773Z,39.4
2023-03-20T10:49:45.135Z,39.4
2023-03-20T10:50:32.478Z,39.4
2023-03-20T10:51:19.878Z,39.4
2023-03-20T10:52:07.254Z,39.4
2023-03-20T10:52:54.697Z,39.5
2023-03-20T10:53:42.396Z,39.6
2023-03-20T10:54:29.735Z,39.5
2023-03-20T10:55:17.222Z,39.5
2023-03-20T10:56:04.596Z,39.4
2023-03-20T10:56:51.895Z,39.2
2023-03-20T10:57:39.240Z,39.1
2023-03-20T10:58:26.693Z,39.1
2023-03-20T10:59:14.046Z,39.1
2023-03-20T11:00:01.379Z,39.1
2023-03-20T11:00:48.828Z,39.2
2023-03-20T11:01:36.250Z,39.2
2023-03-20T11:02:23.663Z,39.1
2023-03-20T11:03:11.049Z,39.2
2023-03-20T11:03:58.621Z,39.2
2023-03-20T11:04:45.979Z,39.2
2023-03-20T11:05:33.388Z,39.2
2023-03-20T11:06:20.743Z,39.2
2023-03-20T11:07:08.073Z,39.2
2023-03-20T11:07:55.481Z,39.2
2023-03-20T11:08:42.815Z,39.2
2023-03-20T11:09:30.140Z,39.2
2023-03-20T11:10:17.637Z,39.3
2023-03-20T11:11:04.997Z,39.2
2023-03-20T11:11:52.315Z,39.2
2023-03-20T11:12:39.759Z,39.2
2023-03-20T11:13:27.085Z,39.3
2023-03-20T11:14:14.386Z,39.2
2023-03-20T11:15:01.827Z,39.4
2023-03-20T11:15:49.180Z,39.2
2023-03-20T11:16:36.609Z,39.2
2023-03-20T11:17:23.977Z,39.2
2023-03-20T11:18:11.348Z,39.2
2023-03-20T11:18:58.834Z,39.2
2023-03-20T11:19:46.230Z,39.2
2023-03-20T11:20:33.823Z,39.2
2023-03-20T11:21:21.236Z,39.2
2023-03-20T11:22:08.676Z,39.1
2023-03-20T11:22:56.010Z,39.2
2023-03-20T11:23:43.390Z,39.2
2023-03-20T11:24:30.768Z,39.2
2023-03-20T11:25:18.252Z,39.3
2023-03-20T11:26:05.552Z,39.3
2023-03-20T11:26:53.009Z,39.3
2023-03-20T11:27:40.314Z,39.3
2023-03-20T11:28:27.632Z,39.3
2023-03-20T11:29:15.046Z,39.4
2023-03-20T11:30:02.514Z,39.4
2023-03-20T11:31:03.876Z,39.4
2023-03-20T11:31:47.148Z,39.4
2023-03-20T11:32:34.618Z,39.4
2023-03-20T11:33:22.038Z,39.4
2023-03-20T11:34:09.368Z,39.3
2023-03-20T11:34:57.051Z,39.4
2023-03-20T11:35:44.777Z,39.3
2023-03-20T11:36:32.094Z,39.3
2023-03-20T11:37:19.539Z,39.4
2023-03-20T11:38:06.927Z,39.4
2023-03-20T11:38:54.260Z,39.3
2023-03-20T11:39:41.676Z,39.4
2023-03-20T11:40:28.961Z,39.4
2023-03-20T11:41:16.276Z,39.4
2023-03-20T11:42:03.720Z,39.4
2023-03-20T11:42:51.023Z,39.5
2023-03-20T11:43:38.355Z,39.5
2023-03-20T11:44:25.830Z,39.5
2023-03-20T11:45:13.178Z,39.6
2023-03-20T11:46:00.565Z,39.5
2023-03-20T11:46:47.936Z,39.5
2023-03-20T11:47:35.314Z,39.5
2023-03-20T11:48:22.646Z,39.5
2023-03-20T11:49:10.069Z,39.5
2023-03-20T11:49:57.385Z,39.4
2023-03-20T11:50:44.713Z,39.5
2023-03-20T11:51:32.181Z,39.5
2023-03-20T11:52:19.507Z,39.5
2023-03-20T11:53:06.833Z,39.4
2023-03-20T11:53:54.255Z,39.5
2023-03-20T11:54:41.593Z,39.6
2023-03-20T11:55:29.144Z,39.6
2023-03-20T11:56:16.576Z,39.6
2023-03-20T11:57:04.101Z,39.5
2023-03-20T11:57:51.418Z,39.6
2023-03-20T11:58:39.101Z,39.8
2023-03-20T11:59:26.448Z,39.8
2023-03-20T12:00:13.784Z,39.6
2023-03-20T12:01:01.232Z,39.5
2023-03-20T12:01:49.044Z,39.5
2023-03-20T12:02:36.491Z,39.5
2023-03-20T12:03:23.856Z,39.5
2023-03-20T12:04:11.672Z,39.5
2023-03-20T12:04:59.001Z,39.4
2023-03-20T12:05:46.410Z,39.4
2023-03-20T12:06:33.735Z,39.3
2023-03-20T12:07:21.043Z,39.3
2023-03-20T12:08:08.442Z,39.2
2023-03-20T12:08:55.710Z,39.2
2023-03-20T12:09:43.838Z,39.2
2023-03-20T12:10:31.158Z,39.2
2023-03-20T12:11:18.494Z,39.2
2023-03-20T12:12:05.810Z,39.2
2023-03-20T12:12:53.155Z,39.2
2023-03-20T12:13:40.693Z,39.2
2023-03-20T12:14:28.003Z,39.2
2023-03-20T12:15:15.368Z,39.0
2023-03-20T12:16:02.821Z,38.7
2023-03-20T12:16:50.173Z,38.8
2023-03-20T12:17:37.500Z,38.9
2023-03-20T12:18:24.920Z,39.0
2023-03-20T12:19:12.269Z,39.1
2023-03-20T12:19:59.580Z,39.1
2023-03-20T12:20:47.071Z,39.0
2023-03-20T12:21:34.401Z,39.1
2023-03-20T12:22:21.739Z,39.1
2023-03-20T12:23:09.185Z,39.5
2023-03-20T12:23:56.525Z,39.2
2023-03-20T12:24:43.844Z,39.1
2023-03-20T12:25:31.278Z,39.5
2023-03-20T12:26:18.794Z,39.2
2023-03-20T12:27:06.172Z,39.1
2023-03-20T12:27:53.545Z,39.0
2023-03-20T12:28:40.893Z,39.0
2023-03-20T12:29:28.219Z,38.9
2023-03-20T12:30:15.749Z,39.0
2023-03-20T12:31:03.107Z,39.0
2023-03-20T12:31:50.496Z,39.0
2023-03-20T12:32:37.918Z,39.0
2023-03-20T12:33:25.285Z,39.0
2023-03-20T12:34:12.627Z,39.2
2023-03-20T12:34:59.990Z,39.1
2023-03-20T12:35:47.576Z,38.9
2023-03-20T12:36:35.263Z,38.9
2023-03-20T12:37:22.624Z,38.9
2023-03-20T12:38:10.038Z,38.9
2023-03-20T12:38:57.491Z,38.9
2023-03-20T12:39:45.615Z,39.0
2023-03-20T12:40:32.956Z,39.1
2023-03-20T12:41:20.320Z,39.0
2023-03-20T12:42:07.628Z,39.0
2023-03-20T12:42:55.002Z,39.1
2023-03-20T12:43:42.315Z,39.0
2023-03-20T12:44:29.646Z,38.9
2023-03-20T12:45:16.956Z,39.0
2023-03-20T12:46:04.285Z,38.9
2023-03-20T12:46:51.707Z,38.9
2023-03-20T12:47:39.073Z,38.9
2023-03-20T12:48:26.473Z,38.9
2023-03-20T12:49:13.852Z,39.1
2023-03-20T12:50:01.209Z,39.1
2023-03-20T12:50:48.580Z,39.1
2023-03-20T12:51:35.908Z,39.1
2023-03-20T12:52:23.324Z,39.1
2023-03-20T12:53:10.655Z,39.0
2023-03-20T12:53:58.012Z,39.0
2023-03-20T12:54:45.346Z,39.0
2023-03-20T12:55:32.722Z,39.0
2023-03-20T12:56:20.041Z,39.0
2023-03-20T12:57:07.385Z,39.2
2023-03-20T12:57:55.025Z,39.1
2023-03-20T12:58:42.765Z,39.1
2023-03-20T12:59:30.070Z,39.3
2023-03-20T13:00:17.665Z,39.2
2023-03-20T13:01:05.209Z,39.2
2023-03-20T13:01:53.335Z,39.3
2023-03-20T13:02:40.755Z,39.2
2023-03-20T13:03:28.070Z,38.9
2023-03-20T13:04:15.396Z,38.0
2023-03-20T13:05:02.716Z,37.4
2023-03-20T13:05:50.164Z,37.2
2023-03-20T13:06:37.502Z,37.0
2023-03-20T13:07:24.876Z,37.0
2023-03-20T13:08:12.244Z,36.9
2023-03-20T13:08:59.570Z,36.7
2023-03-20T13:09:46.874Z,36.7
2023-03-20T13:10:34.527Z,36.7
2023-03-20T13:11:22.396Z,36.7
2023-03-20T13:12:09.725Z,36.7
2023-03-20T13:12:57.080Z,36.6
2023-03-20T13:13:44.545Z,36.7
2023-03-20T13:14:31.864Z,36.7
2023-03-20T13:15:21.546Z,36.5
2023-03-20T13:16:09.504Z,36.4
2023-03-20T13:16:56.913Z,36.4
2023-03-20T13:17:44.619Z,36.4
2023-03-20T13:18:31.997Z,36.6
2023-03-20T13:19:19.380Z,36.6
2023-03-20T13:20:06.695Z,36.7
2023-03-20T13:20:54.050Z,36.5
2023-03-20T13:21:41.368Z,36.6
2023-03-20T13:22:28.800Z,36.5
2023-03-20T13:23:16.147Z,36.6
2023-03-20T13:24:03.489Z,36.7
2023-03-20T13:24:50.930Z,36.7
2023-03-20T13:25:38.353Z,36.8
2023-03-20T13:26:25.756Z,37.0
2023-03-20T13:27:13.204Z,37.4
2023-03-20T13:28:00.740Z,37.1
2023-03-20T13:28:48.063Z,37.1
2023-03-20T13:29:35.518Z,37.0
2023-03-20T13:30:22.854Z,36.9
2023-03-20T13:31:10.393Z,36.9
2023-03-20T13:31:57.798Z,37.0
2023-03-20T13:32:45.165Z,37.0
2023-03-20T13:33:32.507Z,37.1
2023-03-20T13:34:20.006Z,37.3
2023-03-20T13:35:07.323Z,37.5
2023-03-20T13:35:54.679Z,37.5
2023-03-20T13:36:42.082Z,37.8
2023-03-20T13:37:29.420Z,37.6
2023-03-20T13:38:16.750Z,37.5
2023-03-20T13:39:04.370Z,37.3
2023-03-20T13:39:51.677Z,37.3
2023-03-20T13:40:39.488Z,37.4
2023-03-20T13:41:26.951Z,37.3
2023-03-20T13:42:14.421Z,37.3
2023-03-20T13:43:01.872Z,37.4
2023-03-20T13:43:49.218Z,37.4
2023-03-20T13:44:36.689Z,37.5
2023-03-20T13:45:23.994Z,37.5
2023-03-20T13:46:11.375Z,37.4
2023-03-20T13:46:58.821Z,37.2
2023-03-20T13:47:46.235Z,37.1
2023-03-20T13:48:33.737Z,37.3
2023-03-20T13:49:21.100Z,37.3
2023-03-20T13:50:08.475Z,37.3
2023-03-20T13:50:55.813Z,37.3
2023-03-20T13:51:43.515Z,37.3
2023-03-20T13:52:30.966Z,37.3
2023-03-20T13:53:18.282Z,37.3
2023-03-20T13:54:05.617Z,37.0
2023-03-20T13:54:53.100Z,36.9
2023-03-20T13:55:40.928Z,36.9
2023-03-20T13:56:28.246Z,37.1
2023-03-20T13:57:15.822Z,37.1
2023-03-20T13:58:03.215Z,37.1
2023-03-20T13:58:50.550Z,37.2
2023-03-20T13:59:37.969Z,37.2
2023-03-20T14:00:25.293Z,37.3
2023-03-20T14:01:12.708Z,37.3
2023-03-20T14:02:00.056Z,37.3
2023-03-20T14:02:47.364Z,37.2
2023-03-20T14:03:34.739Z,37.2
2023-03-20T14:04:22.253Z,37.1
2023-03-20T14:05:09.678Z,37.1
2023-03-20T14:05:56.996Z,37.0
2023-03-20T14:06:44.926Z,36.9
2023-03-20T14:07:32.786Z,36.8
2023-03-20T14:08:20.134Z,36.8
2023-03-20T14:09:07.453Z,36.8
2023-03-20T14:09:54.856Z,36.8
2023-03-20T14:10:42.196Z,36.8
2023-03-20T14:11:29.549Z,36.8
2023-03-20T14:12:16.964Z,36.9
2023-03-20T14:13:04.358Z,36.9
2023-03-20T14:13:51.767Z,37.2
2023-03-20T14:14:39.173Z,37.3
2023-03-20T14:15:26.528Z,37.2
2023-03-20T14:16:13.873Z,37.0
2023-03-20T14:17:01.303Z,37.5
2023-03-20T14:17:48.631Z,36.9
2023-03-20T14:18:35.956Z,37.0
2023-03-20T14:19:23.839Z,37.1
2023-03-20T14:20:11.370Z,37.0
2023-03-20T14:20:58.707Z,37.0
2023-03-20T14:21:46.024Z,37.1
2023-03-20T14:22:33.461Z,37.1
2023-03-20T14:23:20.826Z,37.1
2023-03-20T14:24:08.161Z,37.3
2023-03-20T14:24:55.624Z,37.2
2023-03-20T14:25:43.059Z,37.1
2023-03-20T14:26:30.544Z,37.3
2023-03-20T14:27:17.871Z,37.4
2023-03-20T14:28:05.200Z,37.4
2023-03-20T14:28:52.572Z,37.3
2023-03-20T14:29:39.905Z,37.3
2023-03-20T14:30:27.276Z,37.4
2023-03-20T14:31:14.591Z,37.4
2023-03-20T14:32:02.002Z,37.4
2023-03-20T14:32:49.328Z,37.3
2023-03-20T14:33:36.674Z,37.2
2023-03-20T14:34:24.107Z,37.2
2023-03-20T14:35:11.434Z,37.1
2023-03-20T14:35:58.785Z,37.3
2023-03-20T14:36:46.246Z,37.5
2023-03-20T14:37:33.604Z,37.6
2023-03-20T14:38:20.954Z,37.6
2023-03-20T14:39:08.358Z,37.8
2023-03-20T14:39:55.688Z,37.6
2023-03-20T14:40:42.982Z,37.5
2023-03-20T14:41:59.184Z,37.4
2023-03-20T14:42:46.390Z,37.3
2023-03-20T14:43:33.589Z,37.4
2023-03-20T14:44:20.826Z,37.4
2023-03-20T14:45:08.238Z,37.3
2023-03-20T14:45:55.684Z,37.2
2023-03-20T14:46:42.882Z,37.2
2023-03-20T14:47:30.449Z,37.1
2023-03-20T14:48:17.676Z,37.2
2023-03-20T14:49:04.898Z,37.2
2023-03-20T14:49:52.322Z,37.2
2023-03-20T14:50:39.837Z,37.4
2023-03-20T14:51:27.161Z,37.4
2023-03-20T14:52:14.585Z,37.4
2023-03-20T14:53:01.852Z,37.5
2023-03-20T14:53:49.084Z,37.5
2023-03-20T14:54:36.517Z,37.4
2023-03-20T14:55:23.758Z,37.5
2023-03-20T14:56:11.018Z,37.6
2023-03-20T14:56:58.438Z,37.5
2023-03-20T14:57:55.937Z,37.5
2023-03-20T14:58:43.328Z,37.8
2023-03-20T14:59:31.000Z,37.4
2023-03-20T15:00:18.694Z,37.4
2023-03-20T15:01:05.935Z,37.4
2023-03-20T15:01:53.235Z,37.5
2023-03-20T15:02:40.620Z,37.4
2023-03-20T15:03:27.850Z,37.5
2023-03-20T15:04:15.055Z,37.7
2023-03-20T15:05:02.692Z,37.8
2023-03-20T15:05:49.992Z,37.9
2023-03-20T15:06:37.193Z,37.7
2023-03-20T15:07:25.891Z,37.6
2023-03-20T15:08:13.129Z,37.6
2023-03-20T15:09:00.355Z,37.7
2023-03-20T15:09:47.601Z,37.6
2023-03-20T15:10:35.317Z,37.6
2023-03-20T15:11:22.786Z,37.7